sensor_id;sensor_type;location;lat;lon;timestamp;temperature;humidity
34989;DHT22;21192;40.182;44.516;2023-05-27T00:02:21;18.70;69.70
34989;DHT22;21192;40.182;44.516;2023-05-27T00:04:47;18.70;69.50
34989;DHT22;21192;40.182;44.516;2023-05-27T00:07:13;18.70;69.50
34989;DHT22;21192;40.182;44.516;2023-05-27T00:09:39;18.70;69.30
34989;DHT22;21192;40.182;44.516;2023-05-27T00:12:05;18.80;70.00
34989;DHT22;21192;40.182;44.516;2023-05-27T00:14:31;18.80;69.00
34989;DHT22;21192;40.182;44.516;2023-05-27T00:16:57;18.70;69.00
34989;DHT22;21192;40.182;44.516;2023-05-27T00:19:22;18.80;69.00
34989;DHT22;21192;40.182;44.516;2023-05-27T00:21:50;18.70;68.80
34989;DHT22;21192;40.182;44.516;2023-05-27T00:24:19;18.80;68.80
34989;DHT22;21192;40.182;44.516;2023-05-27T00:26:45;18.80;68.70
34989;DHT22;21192;40.182;44.516;2023-05-27T00:29:11;18.90;68.70
34989;DHT22;21192;40.182;44.516;2023-05-27T00:31:37;19.00;68.60
34989;DHT22;21192;40.182;44.516;2023-05-27T00:34:03;19.00;68.50
34989;DHT22;21192;40.182;44.516;2023-05-27T00:36:29;19.00;68.50
34989;DHT22;21192;40.182;44.516;2023-05-27T00:38:57;19.00;68.40
34989;DHT22;21192;40.182;44.516;2023-05-27T00:41:24;19.00;68.40
34989;DHT22;21192;40.182;44.516;2023-05-27T00:43:52;18.90;69.00
34989;DHT22;21192;40.182;44.516;2023-05-27T00:46:18;18.90;69.00
34989;DHT22;21192;40.182;44.516;2023-05-27T00:48:45;18.90;69.40
34989;DHT22;21192;40.182;44.516;2023-05-27T00:51:11;18.90;69.50
34989;DHT22;21192;40.182;44.516;2023-05-27T00:53:40;18.90;69.60
34989;DHT22;21192;40.182;44.516;2023-05-27T00:56:10;18.90;69.60
34989;DHT22;21192;40.182;44.516;2023-05-27T00:58:37;18.80;69.50
34989;DHT22;21192;40.182;44.516;2023-05-27T01:01:04;18.80;69.60
34989;DHT22;21192;40.182;44.516;2023-05-27T01:03:31;18.80;69.60
34989;DHT22;21192;40.182;44.516;2023-05-27T01:06:11;18.80;69.50
34989;DHT22;21192;40.182;44.516;2023-05-27T01:09:24;18.80;69.60
34989;DHT22;21192;40.182;44.516;2023-05-27T01:11:59;18.80;69.80
34989;DHT22;21192;40.182;44.516;2023-05-27T01:14:30;18.80;69.80
34989;DHT22;21192;40.182;44.516;2023-05-27T01:16:57;18.80;69.70
34989;DHT22;21192;40.182;44.516;2023-05-27T01:19:33;18.80;69.70
34989;DHT22;21192;40.182;44.516;2023-05-27T01:22:00;18.90;69.60
34989;DHT22;21192;40.182;44.516;2023-05-27T01:24:27;19.00;69.30
34989;DHT22;21192;40.182;44.516;2023-05-27T01:26:54;19.10;69.10
34989;DHT22;21192;40.182;44.516;2023-05-27T01:29:27;19.10;69.10
34989;DHT22;21192;40.182;44.516;2023-05-27T01:34:40;19.10;69.30
34989;DHT22;21192;40.182;44.516;2023-05-27T01:37:09;19.10;69.30
34989;DHT22;21192;40.182;44.516;2023-05-27T01:39:38;19.10;69.60
34989;DHT22;21192;40.182;44.516;2023-05-27T01:42:05;19.10;70.00
34989;DHT22;21192;40.182;44.516;2023-05-27T01:44:32;19.20;69.90
34989;DHT22;21192;40.182;44.516;2023-05-27T01:46:59;19.20;69.80
34989;DHT22;21192;40.182;44.516;2023-05-27T01:49:25;19.30;69.60
34989;DHT22;21192;40.182;44.516;2023-05-27T01:51:51;19.30;69.50
34989;DHT22;21192;40.182;44.516;2023-05-27T01:54:17;19.30;69.50
34989;DHT22;21192;40.182;44.516;2023-05-27T01:56:43;19.30;70.20
34989;DHT22;21192;40.182;44.516;2023-05-27T01:59:09;19.40;69.70
34989;DHT22;21192;40.182;44.516;2023-05-27T02:01:35;19.40;69.80
34989;DHT22;21192;40.182;44.516;2023-05-27T02:04:01;19.40;69.80
34989;DHT22;21192;40.182;44.516;2023-05-27T02:06:27;19.40;69.70
34989;DHT22;21192;40.182;44.516;2023-05-27T02:08:53;19.40;69.80
34989;DHT22;21192;40.182;44.516;2023-05-27T02:11:19;19.50;69.80
34989;DHT22;21192;40.182;44.516;2023-05-27T02:13:44;19.40;70.10
34989;DHT22;21192;40.182;44.516;2023-05-27T02:16:10;19.50;70.20
34989;DHT22;21192;40.182;44.516;2023-05-27T02:18:38;19.60;70.10
34989;DHT22;21192;40.182;44.516;2023-05-27T02:21:04;19.70;70.00
34989;DHT22;21192;40.182;44.516;2023-05-27T02:23:32;19.70;69.80
34989;DHT22;21192;40.182;44.516;2023-05-27T02:25:58;19.70;69.70
34989;DHT22;21192;40.182;44.516;2023-05-27T02:28:24;19.80;69.70
34989;DHT22;21192;40.182;44.516;2023-05-27T02:30:50;19.90;69.50
34989;DHT22;21192;40.182;44.516;2023-05-27T02:33:16;20.20;69.10
34989;DHT22;21192;40.182;44.516;2023-05-27T02:35:41;21.10;68.10
34989;DHT22;21192;40.182;44.516;2023-05-27T02:38:07;22.10;66.30
34989;DHT22;21192;40.182;44.516;2023-05-27T02:40:33;23.10;64.00
34989;DHT22;21192;40.182;44.516;2023-05-27T02:42:59;23.90;61.80
34989;DHT22;21192;40.182;44.516;2023-05-27T02:45:25;24.90;59.80
34989;DHT22;21192;40.182;44.516;2023-05-27T02:47:50;25.80;57.90
34989;DHT22;21192;40.182;44.516;2023-05-27T02:50:16;26.70;56.20
34989;DHT22;21192;40.182;44.516;2023-05-27T02:52:42;27.50;54.40
34989;DHT22;21192;40.182;44.516;2023-05-27T02:55:08;28.30;53.00
34989;DHT22;21192;40.182;44.516;2023-05-27T02:57:34;29.10;51.60
34989;DHT22;21192;40.182;44.516;2023-05-27T03:00:01;29.70;50.20
34989;DHT22;21192;40.182;44.516;2023-05-27T03:02:26;30.40;49.20
34989;DHT22;21192;40.182;44.516;2023-05-27T03:04:52;31.10;47.90
34989;DHT22;21192;40.182;44.516;2023-05-27T03:07:21;31.80;46.80
34989;DHT22;21192;40.182;44.516;2023-05-27T03:09:46;32.60;45.50
34989;DHT22;21192;40.182;44.516;2023-05-27T03:12:12;33.40;44.30
34989;DHT22;21192;40.182;44.516;2023-05-27T03:14:38;34.00;43.10
34989;DHT22;21192;40.182;44.516;2023-05-27T03:17:04;34.50;42.20
34989;DHT22;21192;40.182;44.516;2023-05-27T03:19:30;35.00;41.50
34989;DHT22;21192;40.182;44.516;2023-05-27T03:21:56;35.30;40.70
34989;DHT22;21192;40.182;44.516;2023-05-27T03:24:22;35.90;40.00
34989;DHT22;21192;40.182;44.516;2023-05-27T03:26:48;36.50;39.20
34989;DHT22;21192;40.182;44.516;2023-05-27T03:29:14;36.90;38.40
34989;DHT22;21192;40.182;44.516;2023-05-27T03:31:41;37.20;37.80
34989;DHT22;21192;40.182;44.516;2023-05-27T03:34:07;37.70;37.20
34989;DHT22;21192;40.182;44.516;2023-05-27T03:36:33;38.30;36.60
34989;DHT22;21192;40.182;44.516;2023-05-27T03:39:00;38.80;35.80
34989;DHT22;21192;40.182;44.516;2023-05-27T03:41:26;39.10;35.30
34989;DHT22;21192;40.182;44.516;2023-05-27T03:43:52;39.70;34.70
34989;DHT22;21192;40.182;44.516;2023-05-27T03:46:18;40.00;34.30
34989;DHT22;21192;40.182;44.516;2023-05-27T03:48:44;40.30;33.80
34989;DHT22;21192;40.182;44.516;2023-05-27T03:51:10;40.50;33.50
34989;DHT22;21192;40.182;44.516;2023-05-27T03:53:35;40.80;33.10
34989;DHT22;21192;40.182;44.516;2023-05-27T03:56:01;41.20;32.60
34989;DHT22;21192;40.182;44.516;2023-05-27T03:58:27;41.60;32.10
34989;DHT22;21192;40.182;44.516;2023-05-27T04:00:53;41.80;31.60
34989;DHT22;21192;40.182;44.516;2023-05-27T04:03:20;42.20;31.40
34989;DHT22;21192;40.182;44.516;2023-05-27T04:05:46;42.60;31.00
34989;DHT22;21192;40.182;44.516;2023-05-27T04:08:12;43.20;30.50
34989;DHT22;21192;40.182;44.516;2023-05-27T04:10:39;43.40;30.00
34989;DHT22;21192;40.182;44.516;2023-05-27T04:13:05;43.80;29.80
34989;DHT22;21192;40.182;44.516;2023-05-27T04:15:32;44.30;29.60
34989;DHT22;21192;40.182;44.516;2023-05-27T04:17:58;44.60;29.10
34989;DHT22;21192;40.182;44.516;2023-05-27T04:20:24;44.80;28.70
34989;DHT22;21192;40.182;44.516;2023-05-27T04:22:50;44.80;28.50
34989;DHT22;21192;40.182;44.516;2023-05-27T04:25:16;45.10;28.40
34989;DHT22;21192;40.182;44.516;2023-05-27T04:27:41;45.20;28.20
34989;DHT22;21192;40.182;44.516;2023-05-27T04:30:08;45.60;28.20
34989;DHT22;21192;40.182;44.516;2023-05-27T04:32:34;45.80;28.40
34989;DHT22;21192;40.182;44.516;2023-05-27T04:35:07;46.00;28.10
34989;DHT22;21192;40.182;44.516;2023-05-27T04:37:34;46.10;27.90
34989;DHT22;21192;40.182;44.516;2023-05-27T04:40:05;46.30;28.00
34989;DHT22;21192;40.182;44.516;2023-05-27T04:42:32;45.60;27.80
34989;DHT22;21192;40.182;44.516;2023-05-27T04:44:58;44.90;28.10
34989;DHT22;21192;40.182;44.516;2023-05-27T04:47:25;44.70;28.40
34989;DHT22;21192;40.182;44.516;2023-05-27T04:49:51;44.00;29.20
34989;DHT22;21192;40.182;44.516;2023-05-27T04:52:17;42.60;29.20
34989;DHT22;21192;40.182;44.516;2023-05-27T04:54:46;41.30;30.50
34989;DHT22;21192;40.182;44.516;2023-05-27T04:57:13;40.60;31.30
34989;DHT22;21192;40.182;44.516;2023-05-27T04:59:47;39.10;32.00
34989;DHT22;21192;40.182;44.516;2023-05-27T05:02:29;38.10;32.80
34989;DHT22;21192;40.182;44.516;2023-05-27T05:05:08;36.90;33.90
34989;DHT22;21192;40.182;44.516;2023-05-27T05:07:34;35.50;34.80
34989;DHT22;21192;40.182;44.516;2023-05-27T05:10:04;35.00;35.50
34989;DHT22;21192;40.182;44.516;2023-05-27T05:12:30;34.70;35.90
34989;DHT22;21192;40.182;44.516;2023-05-27T05:14:58;34.60;36.20
34989;DHT22;21192;40.182;44.516;2023-05-27T05:17:24;33.90;37.40
34989;DHT22;21192;40.182;44.516;2023-05-27T05:19:51;33.00;38.00
34989;DHT22;21192;40.182;44.516;2023-05-27T05:22:18;32.30;38.90
34989;DHT22;21192;40.182;44.516;2023-05-27T05:24:47;31.90;39.30
34989;DHT22;21192;40.182;44.516;2023-05-27T05:27:13;31.80;39.60
34989;DHT22;21192;40.182;44.516;2023-05-27T05:29:39;31.70;39.90
34989;DHT22;21192;40.182;44.516;2023-05-27T05:32:06;31.50;40.70
34989;DHT22;21192;40.182;44.516;2023-05-27T05:34:32;31.00;41.70
34989;DHT22;21192;40.182;44.516;2023-05-27T05:36:58;30.70;41.60
34989;DHT22;21192;40.182;44.516;2023-05-27T05:39:24;30.70;41.60
34989;DHT22;21192;40.182;44.516;2023-05-27T05:41:50;30.60;41.60
34989;DHT22;21192;40.182;44.516;2023-05-27T05:44:16;30.60;41.90
34989;DHT22;21192;40.182;44.516;2023-05-27T05:46:42;30.50;42.20
34989;DHT22;21192;40.182;44.516;2023-05-27T05:49:10;30.30;42.10
34989;DHT22;21192;40.182;44.516;2023-05-27T05:51:35;30.10;42.40
34989;DHT22;21192;40.182;44.516;2023-05-27T05:54:01;30.00;43.70
34989;DHT22;21192;40.182;44.516;2023-05-27T05:56:27;29.90;45.50
34989;DHT22;21192;40.182;44.516;2023-05-27T05:58:53;29.80;45.40
34989;DHT22;21192;40.182;44.516;2023-05-27T06:01:19;29.80;44.00
34989;DHT22;21192;40.182;44.516;2023-05-27T06:03:45;29.90;44.10
34989;DHT22;21192;40.182;44.516;2023-05-27T06:06:11;29.80;42.90
34989;DHT22;21192;40.182;44.516;2023-05-27T06:08:37;29.60;43.30
34989;DHT22;21192;40.182;44.516;2023-05-27T06:11:03;29.50;44.00
34989;DHT22;21192;40.182;44.516;2023-05-27T06:13:29;29.50;43.70
34989;DHT22;21192;40.182;44.516;2023-05-27T06:15:55;29.30;43.50
34989;DHT22;21192;40.182;44.516;2023-05-27T06:18:21;29.30;43.60
34989;DHT22;21192;40.182;44.516;2023-05-27T06:20:47;29.10;44.00
34989;DHT22;21192;40.182;44.516;2023-05-27T06:23:13;29.00;44.40
34989;DHT22;21192;40.182;44.516;2023-05-27T06:25:39;28.90;44.90
34989;DHT22;21192;40.182;44.516;2023-05-27T06:28:05;28.70;45.40
34989;DHT22;21192;40.182;44.516;2023-05-27T06:30:36;28.70;45.30
34989;DHT22;21192;40.182;44.516;2023-05-27T06:33:03;28.70;45.30
34989;DHT22;21192;40.182;44.516;2023-05-27T06:35:29;28.80;45.30
34989;DHT22;21192;40.182;44.516;2023-05-27T06:37:57;28.70;45.60
34989;DHT22;21192;40.182;44.516;2023-05-27T06:40:23;28.70;45.90
34989;DHT22;21192;40.182;44.516;2023-05-27T06:42:49;28.60;46.10
34989;DHT22;21192;40.182;44.516;2023-05-27T06:45:15;28.70;46.40
34989;DHT22;21192;40.182;44.516;2023-05-27T06:47:41;28.70;46.50
34989;DHT22;21192;40.182;44.516;2023-05-27T06:50:09;28.50;47.10
34989;DHT22;21192;40.182;44.516;2023-05-27T06:52:35;28.30;48.50
34989;DHT22;21192;40.182;44.516;2023-05-27T06:55:01;28.00;48.50
34989;DHT22;21192;40.182;44.516;2023-05-27T06:57:27;28.00;48.90
34989;DHT22;21192;40.182;44.516;2023-05-27T06:59:55;27.80;49.20
34989;DHT22;21192;40.182;44.516;2023-05-27T07:02:21;27.70;49.50
34989;DHT22;21192;40.182;44.516;2023-05-27T07:04:47;27.50;49.80
34989;DHT22;21192;40.182;44.516;2023-05-27T07:07:12;27.50;50.00
34989;DHT22;21192;40.182;44.516;2023-05-27T07:09:38;27.60;50.30
34989;DHT22;21192;40.182;44.516;2023-05-27T07:12:04;27.60;50.00
34989;DHT22;21192;40.182;44.516;2023-05-27T07:14:32;27.50;49.80
34989;DHT22;21192;40.182;44.516;2023-05-27T07:16:58;27.60;50.00
34989;DHT22;21192;40.182;44.516;2023-05-27T07:19:24;27.60;49.90
34989;DHT22;21192;40.182;44.516;2023-05-27T07:21:50;27.50;49.20
34989;DHT22;21192;40.182;44.516;2023-05-27T07:24:17;27.50;49.10
34989;DHT22;21192;40.182;44.516;2023-05-27T07:26:43;27.60;49.10
34989;DHT22;21192;40.182;44.516;2023-05-27T07:29:09;27.60;49.30
34989;DHT22;21192;40.182;44.516;2023-05-27T07:31:35;27.40;49.40
34989;DHT22;21192;40.182;44.516;2023-05-27T07:34:01;27.40;49.90
34989;DHT22;21192;40.182;44.516;2023-05-27T07:36:27;27.30;49.20
34989;DHT22;21192;40.182;44.516;2023-05-27T07:38:53;27.20;49.10
34989;DHT22;21192;40.182;44.516;2023-05-27T07:41:19;27.00;48.70
34989;DHT22;21192;40.182;44.516;2023-05-27T07:43:47;27.00;49.00
34989;DHT22;21192;40.182;44.516;2023-05-27T07:46:13;26.90;49.20
34989;DHT22;21192;40.182;44.516;2023-05-27T07:48:39;26.90;49.90
34989;DHT22;21192;40.182;44.516;2023-05-27T07:51:05;26.90;50.10
34989;DHT22;21192;40.182;44.516;2023-05-27T07:53:32;26.90;50.20
34989;DHT22;21192;40.182;44.516;2023-05-27T07:55:58;26.90;50.40
34989;DHT22;21192;40.182;44.516;2023-05-27T07:58:24;26.90;50.30
34989;DHT22;21192;40.182;44.516;2023-05-27T08:00:50;27.00;50.10
34989;DHT22;21192;40.182;44.516;2023-05-27T08:03:17;27.00;49.80
34989;DHT22;21192;40.182;44.516;2023-05-27T08:05:43;26.90;49.40
34989;DHT22;21192;40.182;44.516;2023-05-27T08:08:09;26.90;49.10
34989;DHT22;21192;40.182;44.516;2023-05-27T08:10:35;27.10;49.40
34989;DHT22;21192;40.182;44.516;2023-05-27T08:13:02;27.20;48.50
34989;DHT22;21192;40.182;44.516;2023-05-27T08:15:28;27.30;47.50
34989;DHT22;21192;40.182;44.516;2023-05-27T08:17:54;27.20;47.30
34989;DHT22;21192;40.182;44.516;2023-05-27T08:20:20;27.00;47.60
34989;DHT22;21192;40.182;44.516;2023-05-27T08:22:46;26.80;47.80
34989;DHT22;21192;40.182;44.516;2023-05-27T08:25:13;26.70;48.30
34989;DHT22;21192;40.182;44.516;2023-05-27T08:28:05;26.70;48.50
34989;DHT22;21192;40.182;44.516;2023-05-27T08:30:32;26.70;48.40
34989;DHT22;21192;40.182;44.516;2023-05-27T08:32:58;26.80;48.30
34989;DHT22;21192;40.182;44.516;2023-05-27T08:35:25;27.00;48.40
34989;DHT22;21192;40.182;44.516;2023-05-27T08:37:51;27.00;48.10
34989;DHT22;21192;40.182;44.516;2023-05-27T08:40:18;26.90;48.20
34989;DHT22;21192;40.182;44.516;2023-05-27T08:42:46;26.90;48.40
34989;DHT22;21192;40.182;44.516;2023-05-27T08:45:14;26.80;48.90
34989;DHT22;21192;40.182;44.516;2023-05-27T08:47:41;26.80;49.00
34989;DHT22;21192;40.182;44.516;2023-05-27T08:50:08;26.90;48.90
34989;DHT22;21192;40.182;44.516;2023-05-27T08:52:41;26.90;48.60
34989;DHT22;21192;40.182;44.516;2023-05-27T08:55:10;26.70;48.50
34989;DHT22;21192;40.182;44.516;2023-05-27T08:57:37;26.70;48.20
34989;DHT22;21192;40.182;44.516;2023-05-27T09:00:07;26.80;47.80
34989;DHT22;21192;40.182;44.516;2023-05-27T09:02:37;26.90;47.80
34989;DHT22;21192;40.182;44.516;2023-05-27T09:05:05;27.00;47.80
34989;DHT22;21192;40.182;44.516;2023-05-27T09:07:31;27.10;48.30
34989;DHT22;21192;40.182;44.516;2023-05-27T09:09:58;27.10;48.50
34989;DHT22;21192;40.182;44.516;2023-05-27T09:12:28;27.30;48.80
34989;DHT22;21192;40.182;44.516;2023-05-27T09:14:54;27.30;48.90
34989;DHT22;21192;40.182;44.516;2023-05-27T09:17:23;27.30;48.90
34989;DHT22;21192;40.182;44.516;2023-05-27T09:19:53;27.40;48.80
34989;DHT22;21192;40.182;44.516;2023-05-27T09:22:25;27.50;48.50
34989;DHT22;21192;40.182;44.516;2023-05-27T09:24:55;27.60;48.50
34989;DHT22;21192;40.182;44.516;2023-05-27T09:27:29;27.50;48.40
34989;DHT22;21192;40.182;44.516;2023-05-27T09:29:57;27.50;48.50
34989;DHT22;21192;40.182;44.516;2023-05-27T09:32:33;27.30;48.40
34989;DHT22;21192;40.182;44.516;2023-05-27T09:35:01;27.20;49.00
34989;DHT22;21192;40.182;44.516;2023-05-27T09:37:32;27.10;49.50
34989;DHT22;21192;40.182;44.516;2023-05-27T09:40:00;27.10;49.20
34989;DHT22;21192;40.182;44.516;2023-05-27T09:42:43;27.10;48.90
34989;DHT22;21192;40.182;44.516;2023-05-27T09:45:15;27.20;48.90
34989;DHT22;21192;40.182;44.516;2023-05-27T09:47:47;27.20;48.80
34989;DHT22;21192;40.182;44.516;2023-05-27T09:50:14;27.00;49.60
34989;DHT22;21192;40.182;44.516;2023-05-27T09:52:42;27.00;49.60
34989;DHT22;21192;40.182;44.516;2023-05-27T09:55:11;27.00;49.20
34989;DHT22;21192;40.182;44.516;2023-05-27T09:57:42;27.00;48.70
34989;DHT22;21192;40.182;44.516;2023-05-27T10:00:10;27.10;49.30
34989;DHT22;21192;40.182;44.516;2023-05-27T10:02:46;27.20;49.00
34989;DHT22;21192;40.182;44.516;2023-05-27T10:05:14;27.30;48.50
34989;DHT22;21192;40.182;44.516;2023-05-27T10:07:44;27.40;48.20
34989;DHT22;21192;40.182;44.516;2023-05-27T10:10:12;27.50;47.70
34989;DHT22;21192;40.182;44.516;2023-05-27T10:12:45;27.60;47.50
34989;DHT22;21192;40.182;44.516;2023-05-27T10:15:24;27.80;47.50
34989;DHT22;21192;40.182;44.516;2023-05-27T10:17:58;27.90;47.50
34989;DHT22;21192;40.182;44.516;2023-05-27T10:20:33;28.00;47.80
34989;DHT22;21192;40.182;44.516;2023-05-27T10:23:13;28.00;47.80
34989;DHT22;21192;40.182;44.516;2023-05-27T10:25:50;27.90;47.80
34989;DHT22;21192;40.182;44.516;2023-05-27T10:28:26;27.90;47.90
34989;DHT22;21192;40.182;44.516;2023-05-27T10:31:02;28.00;47.90
34989;DHT22;21192;40.182;44.516;2023-05-27T10:33:29;28.10;47.70
34989;DHT22;21192;40.182;44.516;2023-05-27T10:36:02;28.10;47.80
34989;DHT22;21192;40.182;44.516;2023-05-27T10:38:29;28.10;48.80
34989;DHT22;21192;40.182;44.516;2023-05-27T10:41:00;28.00;47.50
34989;DHT22;21192;40.182;44.516;2023-05-27T10:43:28;27.90;46.60
34989;DHT22;21192;40.182;44.516;2023-05-27T10:46:08;27.90;46.40
34989;DHT22;21192;40.182;44.516;2023-05-27T10:48:35;27.90;46.80
34989;DHT22;21192;40.182;44.516;2023-05-27T10:51:03;28.00;47.60
34989;DHT22;21192;40.182;44.516;2023-05-27T10:53:29;28.00;47.70
34989;DHT22;21192;40.182;44.516;2023-05-27T10:55:58;28.00;47.90
34989;DHT22;21192;40.182;44.516;2023-05-27T10:58:25;28.20;47.80
34989;DHT22;21192;40.182;44.516;2023-05-27T11:00:53;28.20;47.60
34989;DHT22;21192;40.182;44.516;2023-05-27T11:03:27;28.20;47.40
34989;DHT22;21192;40.182;44.516;2023-05-27T11:06:04;28.10;47.30
34989;DHT22;21192;40.182;44.516;2023-05-27T11:08:34;28.20;47.20
34989;DHT22;21192;40.182;44.516;2023-05-27T11:11:11;28.30;47.00
34989;DHT22;21192;40.182;44.516;2023-05-27T11:13:42;28.30;47.40
34989;DHT22;21192;40.182;44.516;2023-05-27T11:16:09;28.40;47.00
34989;DHT22;21192;40.182;44.516;2023-05-27T11:18:41;28.40;46.80
34989;DHT22;21192;40.182;44.516;2023-05-27T11:21:09;28.40;46.40
34989;DHT22;21192;40.182;44.516;2023-05-27T11:23:43;28.40;46.50
34989;DHT22;21192;40.182;44.516;2023-05-27T11:26:16;28.50;46.50
34989;DHT22;21192;40.182;44.516;2023-05-27T11:29:00;28.60;46.90
34989;DHT22;21192;40.182;44.516;2023-05-27T11:31:29;28.60;47.20
34989;DHT22;21192;40.182;44.516;2023-05-27T11:33:55;28.50;48.50
34989;DHT22;21192;40.182;44.516;2023-05-27T11:36:27;28.50;48.30
34989;DHT22;21192;40.182;44.516;2023-05-27T11:38:58;28.40;47.50
34989;DHT22;21192;40.182;44.516;2023-05-27T11:41:28;28.30;48.50
34989;DHT22;21192;40.182;44.516;2023-05-27T11:44:05;28.20;47.10
34989;DHT22;21192;40.182;44.516;2023-05-27T11:46:36;28.10;47.00
34989;DHT22;21192;40.182;44.516;2023-05-27T11:49:07;28.00;47.30
34989;DHT22;21192;40.182;44.516;2023-05-27T11:51:36;28.00;47.30
34989;DHT22;21192;40.182;44.516;2023-05-27T11:54:03;28.00;47.20
34989;DHT22;21192;40.182;44.516;2023-05-27T11:56:30;28.00;47.00
34989;DHT22;21192;40.182;44.516;2023-05-27T11:58:57;27.90;46.30
34989;DHT22;21192;40.182;44.516;2023-05-27T12:01:23;27.70;46.20
34989;DHT22;21192;40.182;44.516;2023-05-27T12:03:50;27.60;46.40
34989;DHT22;21192;40.182;44.516;2023-05-27T12:06:19;27.50;46.50
34989;DHT22;21192;40.182;44.516;2023-05-27T12:08:46;27.50;46.80
34989;DHT22;21192;40.182;44.516;2023-05-27T12:11:12;27.50;46.70
34989;DHT22;21192;40.182;44.516;2023-05-27T12:13:38;27.50;46.90
34989;DHT22;21192;40.182;44.516;2023-05-27T12:16:05;27.40;46.90
34989;DHT22;21192;40.182;44.516;2023-05-27T12:18:31;27.40;47.00
34989;DHT22;21192;40.182;44.516;2023-05-27T12:20:57;27.40;47.10
34989;DHT22;21192;40.182;44.516;2023-05-27T12:23:24;27.30;47.10
34989;DHT22;21192;40.182;44.516;2023-05-27T12:25:51;27.30;47.40
34989;DHT22;21192;40.182;44.516;2023-05-27T12:28:17;27.20;47.40
34989;DHT22;21192;40.182;44.516;2023-05-27T12:30:43;27.20;48.30
34989;DHT22;21192;40.182;44.516;2023-05-27T12:33:10;27.20;48.00
34989;DHT22;21192;40.182;44.516;2023-05-27T12:35:36;27.30;48.20
34989;DHT22;21192;40.182;44.516;2023-05-27T12:38:02;27.40;48.50
34989;DHT22;21192;40.182;44.516;2023-05-27T12:40:28;27.40;48.70
34989;DHT22;21192;40.182;44.516;2023-05-27T12:42:55;27.30;49.40
34989;DHT22;21192;40.182;44.516;2023-05-27T12:45:21;27.20;49.20
34989;DHT22;21192;40.182;44.516;2023-05-27T12:47:49;27.20;49.40
34989;DHT22;21192;40.182;44.516;2023-05-27T12:50:15;27.20;49.30
34989;DHT22;21192;40.182;44.516;2023-05-27T12:52:42;27.20;49.20
34989;DHT22;21192;40.182;44.516;2023-05-27T12:55:16;27.20;49.20
34989;DHT22;21192;40.182;44.516;2023-05-27T12:57:50;27.20;49.00
34989;DHT22;21192;40.182;44.516;2023-05-27T13:00:18;27.10;49.10
34989;DHT22;21192;40.182;44.516;2023-05-27T13:02:46;27.10;49.10
34989;DHT22;21192;40.182;44.516;2023-05-27T13:05:16;27.00;49.20
34989;DHT22;21192;40.182;44.516;2023-05-27T13:08:12;26.90;49.60
34989;DHT22;21192;40.182;44.516;2023-05-27T13:10:39;26.80;50.30
34989;DHT22;21192;40.182;44.516;2023-05-27T13:13:06;26.80;50.60
34989;DHT22;21192;40.182;44.516;2023-05-27T13:15:33;26.80;50.90
34989;DHT22;21192;40.182;44.516;2023-05-27T13:17:59;26.80;50.80
34989;DHT22;21192;40.182;44.516;2023-05-27T13:20:26;26.80;50.80
34989;DHT22;21192;40.182;44.516;2023-05-27T13:22:55;26.80;50.70
34989;DHT22;21192;40.182;44.516;2023-05-27T13:25:27;26.70;50.30
34989;DHT22;21192;40.182;44.516;2023-05-27T13:27:54;26.60;50.30
34989;DHT22;21192;40.182;44.516;2023-05-27T13:30:21;26.60;50.60
34989;DHT22;21192;40.182;44.516;2023-05-27T13:32:48;26.60;50.70
34989;DHT22;21192;40.182;44.516;2023-05-27T13:35:14;26.50;50.70
34989;DHT22;21192;40.182;44.516;2023-05-27T13:37:41;26.50;50.70
34989;DHT22;21192;40.182;44.516;2023-05-27T13:40:09;26.50;50.80
34989;DHT22;21192;40.182;44.516;2023-05-27T13:42:36;26.40;51.30
34989;DHT22;21192;40.182;44.516;2023-05-27T13:45:03;26.40;51.40
34989;DHT22;21192;40.182;44.516;2023-05-27T13:47:29;26.30;51.50
34989;DHT22;21192;40.182;44.516;2023-05-27T13:49:55;26.20;51.90
34989;DHT22;21192;40.182;44.516;2023-05-27T13:52:21;26.20;51.90
34989;DHT22;21192;40.182;44.516;2023-05-27T13:54:48;26.20;51.30
34989;DHT22;21192;40.182;44.516;2023-05-27T13:57:14;26.10;51.50
34989;DHT22;21192;40.182;44.516;2023-05-27T13:59:40;26.10;51.20
34989;DHT22;21192;40.182;44.516;2023-05-27T14:02:07;26.00;51.20
34989;DHT22;21192;40.182;44.516;2023-05-27T14:04:35;25.90;51.30
34989;DHT22;21192;40.182;44.516;2023-05-27T14:07:01;25.80;51.70
34989;DHT22;21192;40.182;44.516;2023-05-27T14:09:28;25.60;52.10
34989;DHT22;21192;40.182;44.516;2023-05-27T14:11:54;25.50;49.20
34989;DHT22;21192;40.182;44.516;2023-05-27T14:14:21;25.30;47.70
34989;DHT22;21192;40.182;44.516;2023-05-27T14:16:47;25.20;47.70
34989;DHT22;21192;40.182;44.516;2023-05-27T14:19:14;25.20;47.90
34989;DHT22;21192;40.182;44.516;2023-05-27T14:21:40;25.20;47.60
34989;DHT22;21192;40.182;44.516;2023-05-27T14:24:06;25.30;47.10
34989;DHT22;21192;40.182;44.516;2023-05-27T14:26:33;25.40;47.10
34989;DHT22;21192;40.182;44.516;2023-05-27T14:28:59;25.40;46.50
34989;DHT22;21192;40.182;44.516;2023-05-27T14:31:25;25.50;46.10
34989;DHT22;21192;40.182;44.516;2023-05-27T14:33:51;25.50;46.20
34989;DHT22;21192;40.182;44.516;2023-05-27T14:36:18;25.50;46.50
34989;DHT22;21192;40.182;44.516;2023-05-27T14:38:44;25.50;47.00
34989;DHT22;21192;40.182;44.516;2023-05-27T14:41:10;25.50;47.60
34989;DHT22;21192;40.182;44.516;2023-05-27T14:43:37;25.40;48.30
34989;DHT22;21192;40.182;44.516;2023-05-27T14:46:03;25.40;48.70
34989;DHT22;21192;40.182;44.516;2023-05-27T14:48:29;25.40;49.20
34989;DHT22;21192;40.182;44.516;2023-05-27T14:50:56;25.30;49.40
34989;DHT22;21192;40.182;44.516;2023-05-27T14:53:22;25.30;49.70
34989;DHT22;21192;40.182;44.516;2023-05-27T14:55:48;25.30;50.00
34989;DHT22;21192;40.182;44.516;2023-05-27T14:58:15;25.30;50.00
34989;DHT22;21192;40.182;44.516;2023-05-27T15:00:42;25.30;49.90
34989;DHT22;21192;40.182;44.516;2023-05-27T15:03:08;25.30;50.10
34989;DHT22;21192;40.182;44.516;2023-05-27T15:05:33;25.30;50.10
34989;DHT22;21192;40.182;44.516;2023-05-27T15:08:01;25.20;50.20
34989;DHT22;21192;40.182;44.516;2023-05-27T15:10:27;25.10;52.10
34989;DHT22;21192;40.182;44.516;2023-05-27T15:12:53;24.80;54.80
34989;DHT22;21192;40.182;44.516;2023-05-27T15:15:20;24.30;57.10
34989;DHT22;21192;40.182;44.516;2023-05-27T15:17:49;23.90;58.70
34989;DHT22;21192;40.182;44.516;2023-05-27T15:20:16;23.50;60.30
34989;DHT22;21192;40.182;44.516;2023-05-27T15:22:43;23.20;62.50